CYNL

SPECI CYNL 240328Z AUTO 08007KT 9SM OVC014 M17/M20 A2915 RMK AO1 PRESFR SLP937
SPECI
LOCATION
CYNL
DATE - TIME
240328Z
WIND
080 TRUE @ 7 KNOTS
VISIBILITY
9SM
RUNWAY VISUAL RANGE
NOT REPORTED
WEATHER
CLOUDINESS
OVC014
TEMP / DEWPOINT
-17 ºC / -20 ºC
ALTIMETER
29.15 in. Hg
RECENT WEATHER
NOT REPORTED
WIND SHEAR
NOT REPORTED
REMARKS
RMK AO1 PRESFR SLP937
SEA LEVEL PRESSURE: hPa

CYNL

METAR CYNL 240300Z AUTO ///// 9SM OVC016 M17/M20 A2914 RMK AO1 PRESFR SLP933
METAR
LOCATION
CYNL
DATE - TIME
240300Z
WIND
VISIBILITY
9SM
RUNWAY VISUAL RANGE
NOT REPORTED
WEATHER
CLOUDINESS
OVC016
TEMP / DEWPOINT
-17 ºC / -20 ºC
ALTIMETER
29.14 in. Hg
RECENT WEATHER
NOT REPORTED
WIND SHEAR
NOT REPORTED
REMARKS
RMK AO1 PRESFR SLP933
SEA LEVEL PRESSURE: hPa

CYNL

SPECI CYNL 240234Z AUTO ///// 9SM FEW008 BKN018 OVC060 M17/M20 A2915 RMK AO1 PRESFR SLP937
SPECI
LOCATION
CYNL
DATE - TIME
240234Z
WIND
VISIBILITY
9SM
RUNWAY VISUAL RANGE
NOT REPORTED
WEATHER
CLOUDINESS
FEW008 BKN018 OVC060
TEMP / DEWPOINT
-17 ºC / -20 ºC
ALTIMETER
29.15 in. Hg
RECENT WEATHER
NOT REPORTED
WIND SHEAR
NOT REPORTED
REMARKS
RMK AO1 PRESFR SLP937
SEA LEVEL PRESSURE: hPa

Your time UTC time
 
 
Weather data provided by AXYS Technologies Inc., www.axystechnologies.com
 
Station History